sensor_id;sensor_type;location;lat;lon;timestamp;P1;durP1;ratioP1;P2;durP2;ratioP2
75191;SDS011;63771;52.580;9.734;2023-08-31T00:02:16;11.43;;;9.20;;
75191;SDS011;63771;52.580;9.734;2023-08-31T00:38:18;10.88;;;8.60;;
75191;SDS011;63771;52.580;9.734;2023-08-31T00:40:44;12.95;;;9.18;;
75191;SDS011;63771;52.580;9.734;2023-08-31T00:43:10;11.10;;;8.57;;
75191;SDS011;63771;52.580;9.734;2023-08-31T00:45:35;11.52;;;9.40;;
75191;SDS011;63771;52.580;9.734;2023-08-31T00:48:03;13.68;;;8.80;;
75191;SDS011;63771;52.580;9.734;2023-08-31T01:14:02;10.40;;;7.68;;
75191;SDS011;63771;52.580;9.734;2023-08-31T01:16:36;11.50;;;8.90;;
75191;SDS011;63771;52.580;9.734;2023-08-31T01:19:06;10.48;;;7.88;;
75191;SDS011;63771;52.580;9.734;2023-08-31T01:21:42;8.93;;;6.60;;
75191;SDS011;63771;52.580;9.734;2023-08-31T01:24:11;11.05;;;7.53;;
75191;SDS011;63771;52.580;9.734;2023-08-31T01:26:37;15.90;;;7.93;;
75191;SDS011;63771;52.580;9.734;2023-08-31T01:29:03;9.50;;;7.50;;
75191;SDS011;63771;52.580;9.734;2023-08-31T01:31:29;11.25;;;7.47;;
75191;SDS011;63771;52.580;9.734;2023-08-31T01:33:54;11.50;;;7.13;;
75191;SDS011;63771;52.580;9.734;2023-08-31T01:36:24;9.70;;;7.63;;
75191;SDS011;63771;52.580;9.734;2023-08-31T01:39:03;22.67;;;7.43;;
75191;SDS011;63771;52.580;9.734;2023-08-31T01:41:36;9.43;;;6.78;;
75191;SDS011;63771;52.580;9.734;2023-08-31T01:44:05;10.52;;;7.22;;
75191;SDS011;63771;52.580;9.734;2023-08-31T01:46:33;10.90;;;6.75;;
75191;SDS011;63771;52.580;9.734;2023-08-31T01:48:58;11.95;;;7.90;;
75191;SDS011;63771;52.580;9.734;2023-08-31T01:51:24;10.02;;;7.18;;
75191;SDS011;63771;52.580;9.734;2023-08-31T01:53:49;7.70;;;6.13;;
75191;SDS011;63771;52.580;9.734;2023-08-31T01:56:15;9.20;;;7.03;;
75191;SDS011;63771;52.580;9.734;2023-08-31T01:58:40;9.23;;;6.97;;
75191;SDS011;63771;52.580;9.734;2023-08-31T02:01:05;11.77;;;6.60;;
75191;SDS011;63771;52.580;9.734;2023-08-31T02:03:31;12.85;;;6.78;;
75191;SDS011;63771;52.580;9.734;2023-08-31T02:05:56;14.32;;;7.43;;
75191;SDS011;63771;52.580;9.734;2023-08-31T02:08:22;11.60;;;7.15;;
75191;SDS011;63771;52.580;9.734;2023-08-31T02:10:47;8.65;;;6.47;;
75191;SDS011;63771;52.580;9.734;2023-08-31T02:13:14;10.05;;;7.18;;
75191;SDS011;63771;52.580;9.734;2023-08-31T02:15:40;9.48;;;6.85;;
75191;SDS011;63771;52.580;9.734;2023-08-31T02:18:05;9.87;;;6.20;;
75191;SDS011;63771;52.580;9.734;2023-08-31T02:20:32;9.95;;;6.60;;
75191;SDS011;63771;52.580;9.734;2023-08-31T02:22:57;8.07;;;6.00;;
75191;SDS011;63771;52.580;9.734;2023-08-31T02:25:22;7.23;;;6.40;;
75191;SDS011;63771;52.580;9.734;2023-08-31T02:27:48;10.23;;;7.03;;
75191;SDS011;63771;52.580;9.734;2023-08-31T02:30:13;10.33;;;6.80;;
75191;SDS011;63771;52.580;9.734;2023-08-31T02:32:38;10.53;;;7.17;;
75191;SDS011;63771;52.580;9.734;2023-08-31T02:35:04;7.50;;;6.50;;
75191;SDS011;63771;52.580;9.734;2023-08-31T02:37:29;8.20;;;6.70;;
75191;SDS011;63771;52.580;9.734;2023-08-31T02:39:55;8.97;;;5.90;;
75191;SDS011;63771;52.580;9.734;2023-08-31T02:42:20;8.73;;;6.50;;
75191;SDS011;63771;52.580;9.734;2023-08-31T02:44:45;12.37;;;6.53;;
75191;SDS011;63771;52.580;9.734;2023-08-31T02:47:11;9.32;;;5.95;;
75191;SDS011;63771;52.580;9.734;2023-08-31T02:49:36;10.60;;;6.77;;
75191;SDS011;63771;52.580;9.734;2023-08-31T02:52:01;9.48;;;6.65;;
75191;SDS011;63771;52.580;9.734;2023-08-31T02:54:26;12.30;;;6.88;;
75191;SDS011;63771;52.580;9.734;2023-08-31T02:56:52;9.52;;;6.55;;
75191;SDS011;63771;52.580;9.734;2023-08-31T02:59:17;8.97;;;6.97;;
75191;SDS011;63771;52.580;9.734;2023-08-31T03:01:42;8.40;;;6.37;;
75191;SDS011;63771;52.580;9.734;2023-08-31T03:04:11;10.73;;;6.60;;
75191;SDS011;63771;52.580;9.734;2023-08-31T03:06:37;9.93;;;6.72;;
75191;SDS011;63771;52.580;9.734;2023-08-31T03:09:02;9.17;;;6.27;;
75191;SDS011;63771;52.580;9.734;2023-08-31T03:11:28;8.73;;;7.32;;
75191;SDS011;63771;52.580;9.734;2023-08-31T03:13:53;9.03;;;6.80;;
75191;SDS011;63771;52.580;9.734;2023-08-31T03:16:18;7.63;;;6.50;;
75191;SDS011;63771;52.580;9.734;2023-08-31T03:18:44;7.67;;;6.87;;
75191;SDS011;63771;52.580;9.734;2023-08-31T03:21:09;9.73;;;7.23;;
75191;SDS011;63771;52.580;9.734;2023-08-31T03:23:34;10.57;;;7.10;;
75191;SDS011;63771;52.580;9.734;2023-08-31T03:26:05;10.30;;;7.03;;
75191;SDS011;63771;52.580;9.734;2023-08-31T03:28:31;8.70;;;6.97;;
75191;SDS011;63771;52.580;9.734;2023-08-31T03:30:57;10.07;;;7.03;;
75191;SDS011;63771;52.580;9.734;2023-08-31T03:33:22;8.65;;;6.72;;
75191;SDS011;63771;52.580;9.734;2023-08-31T03:35:47;10.77;;;6.75;;
75191;SDS011;63771;52.580;9.734;2023-08-31T03:38:13;9.43;;;6.53;;
75191;SDS011;63771;52.580;9.734;2023-08-31T03:40:38;12.37;;;6.73;;
75191;SDS011;63771;52.580;9.734;2023-08-31T03:43:03;8.68;;;6.63;;
75191;SDS011;63771;52.580;9.734;2023-08-31T03:45:29;10.70;;;7.43;;
75191;SDS011;63771;52.580;9.734;2023-08-31T03:47:54;8.83;;;6.30;;
75191;SDS011;63771;52.580;9.734;2023-08-31T03:50:19;10.10;;;6.43;;
75191;SDS011;63771;52.580;9.734;2023-08-31T03:52:45;10.30;;;7.23;;
75191;SDS011;63771;52.580;9.734;2023-08-31T03:55:10;10.70;;;6.73;;
75191;SDS011;63771;52.580;9.734;2023-08-31T03:57:35;8.02;;;5.75;;
75191;SDS011;63771;52.580;9.734;2023-08-31T04:00:01;12.17;;;7.10;;
75191;SDS011;63771;52.580;9.734;2023-08-31T04:02:29;12.00;;;7.03;;
75191;SDS011;63771;52.580;9.734;2023-08-31T04:04:56;8.75;;;6.68;;
75191;SDS011;63771;52.580;9.734;2023-08-31T04:07:22;7.97;;;6.13;;
75191;SDS011;63771;52.580;9.734;2023-08-31T04:09:47;11.47;;;8.07;;
75191;SDS011;63771;52.580;9.734;2023-08-31T04:12:13;8.63;;;7.37;;
75191;SDS011;63771;52.580;9.734;2023-08-31T04:14:38;8.07;;;6.77;;
75191;SDS011;63771;52.580;9.734;2023-08-31T04:17:03;9.37;;;6.60;;
75191;SDS011;63771;52.580;9.734;2023-08-31T04:19:30;10.20;;;6.95;;
75191;SDS011;63771;52.580;9.734;2023-08-31T04:21:55;9.02;;;6.93;;
75191;SDS011;63771;52.580;9.734;2023-08-31T04:24:20;9.73;;;6.73;;
75191;SDS011;63771;52.580;9.734;2023-08-31T04:26:46;8.80;;;6.87;;
75191;SDS011;63771;52.580;9.734;2023-08-31T04:29:13;10.30;;;6.63;;
75191;SDS011;63771;52.580;9.734;2023-08-31T04:31:38;9.80;;;6.53;;
75191;SDS011;63771;52.580;9.734;2023-08-31T04:34:04;8.85;;;6.60;;
75191;SDS011;63771;52.580;9.734;2023-08-31T04:36:29;7.25;;;6.25;;
75191;SDS011;63771;52.580;9.734;2023-08-31T04:38:55;9.05;;;7.03;;
75191;SDS011;63771;52.580;9.734;2023-08-31T04:41:20;6.85;;;5.82;;
75191;SDS011;63771;52.580;9.734;2023-08-31T04:43:45;8.70;;;6.27;;
75191;SDS011;63771;52.580;9.734;2023-08-31T04:46:14;9.35;;;6.53;;
75191;SDS011;63771;52.580;9.734;2023-08-31T04:48:39;8.20;;;6.43;;
75191;SDS011;63771;52.580;9.734;2023-08-31T04:51:05;7.93;;;6.27;;
75191;SDS011;63771;52.580;9.734;2023-08-31T04:53:30;9.93;;;6.13;;
75191;SDS011;63771;52.580;9.734;2023-08-31T04:55:56;10.52;;;6.18;;
75191;SDS011;63771;52.580;9.734;2023-08-31T04:58:21;7.57;;;5.72;;
75191;SDS011;63771;52.580;9.734;2023-08-31T05:00:47;15.18;;;6.22;;
75191;SDS011;63771;52.580;9.734;2023-08-31T05:03:12;6.63;;;6.03;;
75191;SDS011;63771;52.580;9.734;2023-08-31T05:05:38;9.25;;;5.55;;
75191;SDS011;63771;52.580;9.734;2023-08-31T05:08:03;8.73;;;5.53;;
75191;SDS011;63771;52.580;9.734;2023-08-31T05:10:29;8.25;;;6.20;;
75191;SDS011;63771;52.580;9.734;2023-08-31T05:12:55;11.83;;;5.63;;
75191;SDS011;63771;52.580;9.734;2023-08-31T05:15:20;10.03;;;5.83;;
75191;SDS011;63771;52.580;9.734;2023-08-31T05:17:46;7.65;;;5.72;;
75191;SDS011;63771;52.580;9.734;2023-08-31T05:20:13;7.90;;;5.63;;
75191;SDS011;63771;52.580;9.734;2023-08-31T05:22:39;8.48;;;6.00;;
75191;SDS011;63771;52.580;9.734;2023-08-31T05:25:04;9.23;;;5.78;;
75191;SDS011;63771;52.580;9.734;2023-08-31T05:27:29;12.75;;;5.88;;
75191;SDS011;63771;52.580;9.734;2023-08-31T05:29:55;11.40;;;7.00;;
75191;SDS011;63771;52.580;9.734;2023-08-31T05:32:20;5.70;;;5.20;;
75191;SDS011;63771;52.580;9.734;2023-08-31T05:34:46;9.40;;;6.22;;
75191;SDS011;63771;52.580;9.734;2023-08-31T05:37:12;8.80;;;6.17;;
75191;SDS011;63771;52.580;9.734;2023-08-31T05:39:37;8.95;;;5.90;;
75191;SDS011;63771;52.580;9.734;2023-08-31T05:42:03;7.93;;;6.17;;
75191;SDS011;63771;52.580;9.734;2023-08-31T05:44:28;7.97;;;6.40;;
75191;SDS011;63771;52.580;9.734;2023-08-31T05:46:53;10.68;;;6.30;;
75191;SDS011;63771;52.580;9.734;2023-08-31T05:49:19;6.77;;;6.07;;
75191;SDS011;63771;52.580;9.734;2023-08-31T05:51:44;7.03;;;6.33;;
75191;SDS011;63771;52.580;9.734;2023-08-31T05:54:10;8.48;;;7.20;;
75191;SDS011;63771;52.580;9.734;2023-08-31T05:56:38;6.57;;;5.97;;
75191;SDS011;63771;52.580;9.734;2023-08-31T05:59:04;8.93;;;5.57;;
75191;SDS011;63771;52.580;9.734;2023-08-31T06:01:30;8.80;;;6.03;;
75191;SDS011;63771;52.580;9.734;2023-08-31T06:03:56;8.32;;;6.47;;
75191;SDS011;63771;52.580;9.734;2023-08-31T06:06:21;10.63;;;6.40;;
75191;SDS011;63771;52.580;9.734;2023-08-31T06:08:46;8.27;;;5.87;;
75191;SDS011;63771;52.580;9.734;2023-08-31T06:11:13;11.30;;;6.82;;
75191;SDS011;63771;52.580;9.734;2023-08-31T06:13:38;9.02;;;6.05;;
75191;SDS011;63771;52.580;9.734;2023-08-31T06:16:04;13.07;;;6.72;;
75191;SDS011;63771;52.580;9.734;2023-08-31T06:18:29;11.37;;;7.60;;
75191;SDS011;63771;52.580;9.734;2023-08-31T06:20:54;11.13;;;6.53;;
75191;SDS011;63771;52.580;9.734;2023-08-31T06:23:19;8.77;;;6.90;;
75191;SDS011;63771;52.580;9.734;2023-08-31T06:25:45;10.50;;;6.97;;
75191;SDS011;63771;52.580;9.734;2023-08-31T06:28:13;8.88;;;7.25;;
75191;SDS011;63771;52.580;9.734;2023-08-31T06:30:38;10.75;;;6.68;;
75191;SDS011;63771;52.580;9.734;2023-08-31T06:33:04;11.80;;;7.00;;
75191;SDS011;63771;52.580;9.734;2023-08-31T06:35:29;10.75;;;7.32;;
75191;SDS011;63771;52.580;9.734;2023-08-31T06:37:56;11.40;;;6.57;;
75191;SDS011;63771;52.580;9.734;2023-08-31T06:40:21;8.75;;;7.30;;
75191;SDS011;63771;52.580;9.734;2023-08-31T06:42:47;13.77;;;8.27;;
75191;SDS011;63771;52.580;9.734;2023-08-31T06:45:12;9.73;;;7.60;;
75191;SDS011;63771;52.580;9.734;2023-08-31T06:47:38;10.10;;;7.75;;
75191;SDS011;63771;52.580;9.734;2023-08-31T06:50:03;12.65;;;8.43;;
75191;SDS011;63771;52.580;9.734;2023-08-31T06:52:29;8.40;;;7.32;;
75191;SDS011;63771;52.580;9.734;2023-08-31T06:54:55;9.90;;;7.68;;
75191;SDS011;63771;52.580;9.734;2023-08-31T06:57:21;11.30;;;8.60;;
75191;SDS011;63771;52.580;9.734;2023-08-31T06:59:47;11.95;;;8.95;;
75191;SDS011;63771;52.580;9.734;2023-08-31T07:02:13;11.88;;;9.48;;
75191;SDS011;63771;52.580;9.734;2023-08-31T07:04:39;10.13;;;8.35;;
75191;SDS011;63771;52.580;9.734;2023-08-31T07:07:05;12.80;;;8.97;;
75191;SDS011;63771;52.580;9.734;2023-08-31T07:09:30;14.77;;;9.77;;
75191;SDS011;63771;52.580;9.734;2023-08-31T07:11:55;11.48;;;9.75;;
75191;SDS011;63771;52.580;9.734;2023-08-31T07:14:21;13.40;;;9.52;;
75191;SDS011;63771;52.580;9.734;2023-08-31T07:16:46;13.57;;;9.40;;
75191;SDS011;63771;52.580;9.734;2023-08-31T07:19:11;10.30;;;9.23;;
75191;SDS011;63771;52.580;9.734;2023-08-31T07:21:37;10.57;;;9.47;;
75191;SDS011;63771;52.580;9.734;2023-08-31T07:24:02;13.30;;;9.67;;
75191;SDS011;63771;52.580;9.734;2023-08-31T07:26:27;14.70;;;9.87;;
75191;SDS011;63771;52.580;9.734;2023-08-31T07:28:53;12.10;;;9.15;;
75191;SDS011;63771;52.580;9.734;2023-08-31T07:31:19;16.83;;;10.80;;
75191;SDS011;63771;52.580;9.734;2023-08-31T07:33:44;13.73;;;11.38;;
75191;SDS011;63771;52.580;9.734;2023-08-31T07:36:10;18.27;;;11.02;;
75191;SDS011;63771;52.580;9.734;2023-08-31T07:38:35;15.18;;;11.30;;
75191;SDS011;63771;52.580;9.734;2023-08-31T07:41:01;20.27;;;11.47;;
75191;SDS011;63771;52.580;9.734;2023-08-31T07:43:26;16.73;;;12.02;;
75191;SDS011;63771;52.580;9.734;2023-08-31T07:45:52;14.23;;;11.30;;
75191;SDS011;63771;52.580;9.734;2023-08-31T07:48:18;17.67;;;11.80;;
75191;SDS011;63771;52.580;9.734;2023-08-31T07:50:43;18.73;;;12.87;;
75191;SDS011;63771;52.580;9.734;2023-08-31T07:53:08;16.70;;;13.32;;
75191;SDS011;63771;52.580;9.734;2023-08-31T07:55:34;19.45;;;13.32;;
75191;SDS011;63771;52.580;9.734;2023-08-31T07:58:00;15.35;;;13.13;;
75191;SDS011;63771;52.580;9.734;2023-08-31T08:00:26;13.82;;;12.13;;
75191;SDS011;63771;52.580;9.734;2023-08-31T08:02:51;17.23;;;12.37;;
75191;SDS011;63771;52.580;9.734;2023-08-31T08:05:16;16.47;;;11.97;;
75191;SDS011;63771;52.580;9.734;2023-08-31T08:07:42;14.60;;;11.43;;
75191;SDS011;63771;52.580;9.734;2023-08-31T08:10:08;15.07;;;11.27;;
75191;SDS011;63771;52.580;9.734;2023-08-31T08:12:40;14.27;;;11.60;;
75191;SDS011;63771;52.580;9.734;2023-08-31T08:15:09;14.93;;;12.68;;
75191;SDS011;63771;52.580;9.734;2023-08-31T08:17:35;16.70;;;12.88;;
75191;SDS011;63771;52.580;9.734;2023-08-31T08:20:00;16.75;;;12.27;;
75191;SDS011;63771;52.580;9.734;2023-08-31T08:22:26;15.90;;;12.32;;
75191;SDS011;63771;52.580;9.734;2023-08-31T08:24:51;15.03;;;12.70;;
75191;SDS011;63771;52.580;9.734;2023-08-31T08:27:16;17.90;;;12.55;;
75191;SDS011;63771;52.580;9.734;2023-08-31T08:29:44;15.25;;;11.75;;
75191;SDS011;63771;52.580;9.734;2023-08-31T08:32:10;12.65;;;10.75;;
75191;SDS011;63771;52.580;9.734;2023-08-31T08:34:35;15.50;;;11.13;;
75191;SDS011;63771;52.580;9.734;2023-08-31T08:37:00;13.97;;;12.43;;
75191;SDS011;63771;52.580;9.734;2023-08-31T08:39:26;16.20;;;10.63;;
75191;SDS011;63771;52.580;9.734;2023-08-31T08:41:51;13.68;;;11.15;;
75191;SDS011;63771;52.580;9.734;2023-08-31T08:44:20;15.27;;;11.68;;
75191;SDS011;63771;52.580;9.734;2023-08-31T08:46:47;12.55;;;11.15;;
75191;SDS011;63771;52.580;9.734;2023-08-31T08:49:14;13.32;;;10.50;;
75191;SDS011;63771;52.580;9.734;2023-08-31T08:51:40;12.00;;;10.60;;
75191;SDS011;63771;52.580;9.734;2023-08-31T08:54:06;14.65;;;12.07;;
75191;SDS011;63771;52.580;9.734;2023-08-31T08:56:33;12.98;;;10.15;;
75191;SDS011;63771;52.580;9.734;2023-08-31T08:58:59;13.75;;;10.07;;
75191;SDS011;63771;52.580;9.734;2023-08-31T09:01:25;12.13;;;10.75;;
75191;SDS011;63771;52.580;9.734;2023-08-31T09:03:51;13.70;;;9.10;;
75191;SDS011;63771;52.580;9.734;2023-08-31T09:06:16;9.40;;;8.10;;
75191;SDS011;63771;52.580;9.734;2023-08-31T09:08:42;10.88;;;8.10;;
75191;SDS011;63771;52.580;9.734;2023-08-31T09:11:07;10.17;;;7.83;;
75191;SDS011;63771;52.580;9.734;2023-08-31T09:13:33;10.55;;;8.57;;
75191;SDS011;63771;52.580;9.734;2023-08-31T09:15:59;9.35;;;8.02;;
75191;SDS011;63771;52.580;9.734;2023-08-31T09:18:28;10.30;;;8.80;;
75191;SDS011;63771;52.580;9.734;2023-08-31T09:20:56;10.07;;;8.68;;
75191;SDS011;63771;52.580;9.734;2023-08-31T09:23:22;8.80;;;7.90;;
75191;SDS011;63771;52.580;9.734;2023-08-31T09:25:49;11.38;;;8.93;;
75191;SDS011;63771;52.580;9.734;2023-08-31T09:28:18;11.88;;;8.10;;
75191;SDS011;63771;52.580;9.734;2023-08-31T09:30:46;9.32;;;8.38;;
75191;SDS011;63771;52.580;9.734;2023-08-31T09:33:16;9.73;;;7.88;;
75191;SDS011;63771;52.580;9.734;2023-08-31T09:38:18;9.05;;;6.88;;
75191;SDS011;63771;52.580;9.734;2023-08-31T09:40:44;8.95;;;8.00;;
75191;SDS011;63771;52.580;9.734;2023-08-31T09:43:09;8.85;;;7.85;;
75191;SDS011;63771;52.580;9.734;2023-08-31T09:45:35;10.32;;;7.95;;
75191;SDS011;63771;52.580;9.734;2023-08-31T09:48:01;7.45;;;6.65;;
75191;SDS011;63771;52.580;9.734;2023-08-31T09:50:31;9.75;;;8.07;;
75191;SDS011;63771;52.580;9.734;2023-08-31T09:53:02;8.40;;;7.55;;
75191;SDS011;63771;52.580;9.734;2023-08-31T09:55:31;9.80;;;8.02;;
75191;SDS011;63771;52.580;9.734;2023-08-31T09:57:58;8.25;;;7.45;;
75191;SDS011;63771;52.580;9.734;2023-08-31T10:00:27;8.95;;;6.90;;
75191;SDS011;63771;52.580;9.734;2023-08-31T10:02:55;6.55;;;5.47;;
75191;SDS011;63771;52.580;9.734;2023-08-31T10:05:22;5.30;;;4.80;;
75191;SDS011;63771;52.580;9.734;2023-08-31T10:07:49;7.03;;;4.88;;
75191;SDS011;63771;52.580;9.734;2023-08-31T10:10:15;5.82;;;5.35;;
75191;SDS011;63771;52.580;9.734;2023-08-31T10:12:41;8.57;;;4.97;;
75191;SDS011;63771;52.580;9.734;2023-08-31T10:15:08;5.63;;;4.50;;
75191;SDS011;63771;52.580;9.734;2023-08-31T10:17:34;4.72;;;4.32;;
75191;SDS011;63771;52.580;9.734;2023-08-31T10:20:00;6.68;;;4.88;;
75191;SDS011;63771;52.580;9.734;2023-08-31T10:22:26;4.65;;;4.22;;
75191;SDS011;63771;52.580;9.734;2023-08-31T10:27:23;5.05;;;4.70;;
75191;SDS011;63771;52.580;9.734;2023-08-31T10:29:49;4.75;;;4.35;;
75191;SDS011;63771;52.580;9.734;2023-08-31T10:32:17;5.73;;;4.80;;
75191;SDS011;63771;52.580;9.734;2023-08-31T10:34:43;5.57;;;5.15;;
75191;SDS011;63771;52.580;9.734;2023-08-31T10:37:22;4.93;;;4.60;;
75191;SDS011;63771;52.580;9.734;2023-08-31T10:39:48;4.18;;;3.85;;
75191;SDS011;63771;52.580;9.734;2023-08-31T10:42:13;4.28;;;3.97;;
75191;SDS011;63771;52.580;9.734;2023-08-31T10:44:41;5.47;;;3.87;;
75191;SDS011;63771;52.580;9.734;2023-08-31T10:47:07;4.55;;;3.67;;
75191;SDS011;63771;52.580;9.734;2023-08-31T10:49:33;4.80;;;4.40;;
75191;SDS011;63771;52.580;9.734;2023-08-31T10:52:14;6.33;;;4.80;;
75191;SDS011;63771;52.580;9.734;2023-08-31T10:54:43;4.35;;;3.95;;
75191;SDS011;63771;52.580;9.734;2023-08-31T10:57:09;5.38;;;4.75;;
75191;SDS011;63771;52.580;9.734;2023-08-31T10:59:44;4.80;;;3.83;;
75191;SDS011;63771;52.580;9.734;2023-08-31T11:02:09;4.78;;;4.18;;
75191;SDS011;63771;52.580;9.734;2023-08-31T11:04:59;3.42;;;3.13;;
75191;SDS011;63771;52.580;9.734;2023-08-31T11:07:25;4.30;;;3.80;;
75191;SDS011;63771;52.580;9.734;2023-08-31T11:09:52;3.60;;;3.10;;
75191;SDS011;63771;52.580;9.734;2023-08-31T11:12:21;3.83;;;3.00;;
75191;SDS011;63771;52.580;9.734;2023-08-31T11:14:48;4.30;;;4.00;;
75191;SDS011;63771;52.580;9.734;2023-08-31T11:17:13;3.20;;;2.90;;
75191;SDS011;63771;52.580;9.734;2023-08-31T11:19:38;3.10;;;2.65;;
75191;SDS011;63771;52.580;9.734;2023-08-31T11:22:04;4.85;;;2.47;;
75191;SDS011;63771;52.580;9.734;2023-08-31T11:24:31;3.63;;;2.92;;
75191;SDS011;63771;52.580;9.734;2023-08-31T11:26:57;2.83;;;2.63;;
75191;SDS011;63771;52.580;9.734;2023-08-31T11:29:23;10.43;;;3.22;;
75191;SDS011;63771;52.580;9.734;2023-08-31T11:31:49;3.45;;;2.67;;
75191;SDS011;63771;52.580;9.734;2023-08-31T11:34:15;3.47;;;1.98;;
75191;SDS011;63771;52.580;9.734;2023-08-31T11:36:41;1.80;;;1.70;;
75191;SDS011;63771;52.580;9.734;2023-08-31T11:39:10;1.90;;;1.80;;
75191;SDS011;63771;52.580;9.734;2023-08-31T11:41:36;4.47;;;2.20;;
75191;SDS011;63771;52.580;9.734;2023-08-31T11:44:07;1.80;;;1.65;;
75191;SDS011;63771;52.580;9.734;2023-08-31T11:46:33;1.70;;;1.60;;
75191;SDS011;63771;52.580;9.734;2023-08-31T11:48:59;2.30;;;1.40;;
75191;SDS011;63771;52.580;9.734;2023-08-31T11:51:25;2.80;;;1.80;;
75191;SDS011;63771;52.580;9.734;2023-08-31T11:53:54;1.83;;;1.73;;
75191;SDS011;63771;52.580;9.734;2023-08-31T11:56:21;2.40;;;2.00;;
75191;SDS011;63771;52.580;9.734;2023-08-31T11:58:46;4.75;;;3.08;;
75191;SDS011;63771;52.580;9.734;2023-08-31T12:01:19;2.53;;;2.30;;
75191;SDS011;63771;52.580;9.734;2023-08-31T12:03:46;4.63;;;2.28;;
75191;SDS011;63771;52.580;9.734;2023-08-31T12:06:14;2.90;;;2.60;;
75191;SDS011;63771;52.580;9.734;2023-08-31T12:08:41;6.95;;;3.20;;
75191;SDS011;63771;52.580;9.734;2023-08-31T12:11:06;4.40;;;2.80;;
75191;SDS011;63771;52.580;9.734;2023-08-31T12:13:32;3.92;;;3.03;;
75191;SDS011;63771;52.580;9.734;2023-08-31T12:15:57;4.35;;;2.35;;
75191;SDS011;63771;52.580;9.734;2023-08-31T12:18:23;4.20;;;2.92;;
75191;SDS011;63771;52.580;9.734;2023-08-31T12:20:51;3.85;;;2.28;;
75191;SDS011;63771;52.580;9.734;2023-08-31T12:23:17;2.95;;;2.63;;
75191;SDS011;63771;52.580;9.734;2023-08-31T12:25:49;5.32;;;2.83;;
75191;SDS011;63771;52.580;9.734;2023-08-31T12:28:19;2.80;;;2.60;;
75191;SDS011;63771;52.580;9.734;2023-08-31T12:30:48;3.83;;;2.30;;
75191;SDS011;63771;52.580;9.734;2023-08-31T12:33:15;3.13;;;2.38;;
75191;SDS011;63771;52.580;9.734;2023-08-31T12:35:41;2.30;;;2.20;;
75191;SDS011;63771;52.580;9.734;2023-08-31T12:38:06;2.97;;;2.47;;
75191;SDS011;63771;52.580;9.734;2023-08-31T12:40:32;2.40;;;2.20;;
75191;SDS011;63771;52.580;9.734;2023-08-31T12:42:57;2.95;;;2.70;;
75191;SDS011;63771;52.580;9.734;2023-08-31T12:45:22;6.20;;;2.10;;
75191;SDS011;63771;52.580;9.734;2023-08-31T12:47:48;2.90;;;2.17;;
75191;SDS011;63771;52.580;9.734;2023-08-31T12:50:13;2.10;;;2.00;;
75191;SDS011;63771;52.580;9.734;2023-08-31T12:52:38;1.45;;;1.35;;
75191;SDS011;63771;52.580;9.734;2023-08-31T12:55:09;1.38;;;1.38;;
75191;SDS011;63771;52.580;9.734;2023-08-31T12:57:35;1.10;;;1.10;;
75191;SDS011;63771;52.580;9.734;2023-08-31T13:00:00;1.87;;;1.20;;
75191;SDS011;63771;52.580;9.734;2023-08-31T13:02:27;3.10;;;1.30;;
75191;SDS011;63771;52.580;9.734;2023-08-31T13:04:52;2.13;;;1.20;;
75191;SDS011;63771;52.580;9.734;2023-08-31T13:07:18;3.37;;;1.10;;
75191;SDS011;63771;52.580;9.734;2023-08-31T13:09:43;1.52;;;1.30;;
75191;SDS011;63771;52.580;9.734;2023-08-31T13:12:08;1.83;;;1.73;;
75191;SDS011;63771;52.580;9.734;2023-08-31T13:14:34;2.57;;;1.37;;
75191;SDS011;63771;52.580;9.734;2023-08-31T13:16:59;2.42;;;2.03;;
75191;SDS011;63771;52.580;9.734;2023-08-31T13:19:25;1.10;;;1.10;;
75191;SDS011;63771;52.580;9.734;2023-08-31T13:21:50;1.43;;;1.30;;
75191;SDS011;63771;52.580;9.734;2023-08-31T13:24:15;1.13;;;1.10;;
75191;SDS011;63771;52.580;9.734;2023-08-31T13:26:41;1.27;;;1.25;;
75191;SDS011;63771;52.580;9.734;2023-08-31T13:29:12;2.25;;;1.45;;
75191;SDS011;63771;52.580;9.734;2023-08-31T13:31:37;2.92;;;1.20;;
75191;SDS011;63771;52.580;9.734;2023-08-31T13:34:02;4.50;;;1.10;;
75191;SDS011;63771;52.580;9.734;2023-08-31T13:36:28;8.82;;;1.20;;
75191;SDS011;63771;52.580;9.734;2023-08-31T13:38:53;1.80;;;1.10;;
75191;SDS011;63771;52.580;9.734;2023-08-31T13:41:19;3.37;;;1.53;;
75191;SDS011;63771;52.580;9.734;2023-08-31T13:43:44;1.63;;;1.53;;
75191;SDS011;63771;52.580;9.734;2023-08-31T13:46:09;1.63;;;1.23;;
75191;SDS011;63771;52.580;9.734;2023-08-31T13:48:36;1.70;;;1.60;;
75191;SDS011;63771;52.580;9.734;2023-08-31T13:51:01;1.98;;;1.17;;
75191;SDS011;63771;52.580;9.734;2023-08-31T13:53:27;1.83;;;1.10;;
75191;SDS011;63771;52.580;9.734;2023-08-31T13:55:53;1.57;;;1.10;;
75191;SDS011;63771;52.580;9.734;2023-08-31T13:58:18;2.42;;;1.33;;
75191;SDS011;63771;52.580;9.734;2023-08-31T14:00:43;5.53;;;1.20;;
75191;SDS011;63771;52.580;9.734;2023-08-31T14:03:09;0.83;;;0.77;;
75191;SDS011;63771;52.580;9.734;2023-08-31T14:05:34;1.40;;;0.70;;
75191;SDS011;63771;52.580;9.734;2023-08-31T14:08:00;1.07;;;1.07;;
75191;SDS011;63771;52.580;9.734;2023-08-31T14:10:28;1.08;;;0.80;;
75191;SDS011;63771;52.580;9.734;2023-08-31T14:12:53;1.08;;;0.90;;
75191;SDS011;63771;52.580;9.734;2023-08-31T14:15:19;4.63;;;0.90;;
75191;SDS011;63771;52.580;9.734;2023-08-31T14:17:44;2.77;;;0.97;;
75191;SDS011;63771;52.580;9.734;2023-08-31T14:20:10;1.20;;;0.85;;
75191;SDS011;63771;52.580;9.734;2023-08-31T14:22:36;1.00;;;0.90;;
75191;SDS011;63771;52.580;9.734;2023-08-31T14:25:02;0.90;;;0.90;;
75191;SDS011;63771;52.580;9.734;2023-08-31T14:27:28;2.20;;;1.20;;
75191;SDS011;63771;52.580;9.734;2023-08-31T14:29:55;0.73;;;0.73;;
75191;SDS011;63771;52.580;9.734;2023-08-31T14:32:23;0.88;;;0.88;;
75191;SDS011;63771;52.580;9.734;2023-08-31T14:34:49;1.10;;;0.90;;
75191;SDS011;63771;52.580;9.734;2023-08-31T14:37:14;1.00;;;0.93;;
75191;SDS011;63771;52.580;9.734;2023-08-31T14:39:40;1.00;;;1.00;;
75191;SDS011;63771;52.580;9.734;2023-08-31T14:42:06;0.90;;;0.90;;
75191;SDS011;63771;52.580;9.734;2023-08-31T14:44:31;1.05;;;0.73;;
75191;SDS011;63771;52.580;9.734;2023-08-31T14:46:56;3.17;;;1.50;;
75191;SDS011;63771;52.580;9.734;2023-08-31T14:49:22;0.80;;;0.80;;
75191;SDS011;63771;52.580;9.734;2023-08-31T14:51:47;0.90;;;0.90;;
75191;SDS011;63771;52.580;9.734;2023-08-31T14:54:13;0.67;;;0.60;;
75191;SDS011;63771;52.580;9.734;2023-08-31T14:56:38;2.83;;;0.73;;
75191;SDS011;63771;52.580;9.734;2023-08-31T14:59:03;1.23;;;0.95;;
75191;SDS011;63771;52.580;9.734;2023-08-31T15:01:29;0.83;;;0.83;;
75191;SDS011;63771;52.580;9.734;2023-08-31T15:03:54;0.90;;;0.90;;
75191;SDS011;63771;52.580;9.734;2023-08-31T15:06:19;1.80;;;0.82;;
75191;SDS011;63771;52.580;9.734;2023-08-31T15:08:45;1.05;;;1.05;;
75191;SDS011;63771;52.580;9.734;2023-08-31T15:11:10;0.97;;;0.93;;
75191;SDS011;63771;52.580;9.734;2023-08-31T15:13:36;0.75;;;0.60;;
75191;SDS011;63771;52.580;9.734;2023-08-31T15:16:01;0.82;;;0.80;;
75191;SDS011;63771;52.580;9.734;2023-08-31T15:18:27;2.15;;;0.80;;
75191;SDS011;63771;52.580;9.734;2023-08-31T15:20:53;2.35;;;1.40;;
75191;SDS011;63771;52.580;9.734;2023-08-31T15:23:18;1.95;;;0.70;;
75191;SDS011;63771;52.580;9.734;2023-08-31T15:25:44;2.27;;;1.00;;
75191;SDS011;63771;52.580;9.734;2023-08-31T15:28:09;1.53;;;0.70;;
75191;SDS011;63771;52.580;9.734;2023-08-31T15:30:34;0.50;;;0.50;;
75191;SDS011;63771;52.580;9.734;2023-08-31T15:33:00;2.47;;;1.00;;
75191;SDS011;63771;52.580;9.734;2023-08-31T15:35:28;0.80;;;0.80;;
75191;SDS011;63771;52.580;9.734;2023-08-31T15:37:53;1.13;;;0.90;;